默认 日期 大小 文件数 浏览量 最新下载 xml
tempting磁力链接相关资源由用户搜索指令自动获取,结果来源于网络,本站不存储任何资料,亦不承担任何责任,请于24小时内删除,搜索到846个磁力,用时1ms。
    ... 布.mht": 122449, "PixAndVideo - Anainda - Tempting Lateena.mp4": 263903856, "www.91gxsb ...
创建时间: 2019-04-22 21:19:47 大小:269.34 MB 文件数量:10 热度:6 最近下载:2024-09-02 12:41:02
    ... , "model-bio_Belinda.txt": 168, "_stunning-tempting-clothes-cover.jpg": 101441, "stunning ... -tempting-clothes-cover-clean.jpg": 75762, " ...
创建时间: 2019-04-24 06:21:26 大小:213.54 MB 文件数量:109 热度:6 最近下载:2022-05-31 05:40:25
    {"playboyplus.19.03.18.calypso.muse.tempting.fruit[N1C].mp4": 144180257}
创建时间: 2019-04-26 18:32:01 大小:137.5 MB 文件数量:1 热度:7 最近下载:2025-03-23 16:48:01
    {"free audiobook version.txt": 478, "Tempting as Sin by Rosalind James.epub": 1132551}
创建时间: 2019-04-26 23:34:15 大小:1.08 MB 文件数量:2 热度:6 最近下载:2024-12-03 18:14:01
    {"ktr.ifg.12.03.31.kari.tempting.titillation.mp4": 489568572, "ktr.ifg.12.03.31.kari.tempting.titillation.nfo": 6979}
创建时间: 2019-04-29 02:54:16 大小:466.9 MB 文件数量:2 热度:4 最近下载:2021-06-17 16:25:58
    ... Swamp.flac": 40912115, "01 His Tempting Ritual.flac": 36679120, "06 Wrath ...
创建时间: 2019-04-29 16:44:08 大小:314.06 MB 文件数量:8 热度:4 最近下载:2025-01-28 01:44:04
    ... From TorrentGalaxy.org.txt": 689, "Tempting Kristi Klenot Creamed After Anal ...
创建时间: 2019-04-30 23:46:30 大小:73.59 MB 文件数量:8 热度:7 最近下载:2024-11-12 20:51:02
    {"心动.Tempting.Heart.1999.DVDRip.HALFCD.2Audios.CHT-edit110.mkv": 734529815, "心动.Tempting.Heart.1999.DVDRip.HALFCD.2Audios.CHT-edit110.mkv.jpg": 138956}
创建时间: 2019-05-03 20:06:51 大小:700.63 MB 文件数量:2 热度:51 最近下载:2025-09-02 16:17:02
    {"poster.jpg": 41439, "screens.jpg": 528960, "oyll.16.01.19.nia.black.and.anastasia.tempting.to.sin.mp4": 1119158830}
创建时间: 2019-05-05 22:46:32 大小:1.04 GB 文件数量:3 热度:5 最近下载:2024-10-12 00:02:04
创建时间: 2019-05-07 05:58:31 大小:188.49 MB 文件数量:1 热度:5 最近下载:2021-06-17 16:25:58
    {"Torrent Downloaded From ProstyleX.com.nfo": 38, "RoundAndBrown - Ivory Logan - Tight And Tempting.mp4": 308615385}
创建时间: 2019-05-09 08:26:22 大小:294.32 MB 文件数量:2 热度:4 最近下载:2021-06-17 16:25:58
    {"free audiobook version.txt": 478, "Tempting Tempo (Tempest, n. 5) by Michelle Mankin.epub": 1495810}
创建时间: 2019-05-16 23:09:16 大小:1.43 MB 文件数量:2 热度:6 最近下载:2025-08-05 06:28:04
    {"poster.jpg": 24680, "screens.jpg": 363748, "RARBG.com.txt": 33, "joymii.14.04.11.victoria.p.tempting.victoria.mp4": 1252113769}
创建时间: 2019-05-18 08:17:13 大小:1.17 GB 文件数量:4 热度:7 最近下载:2025-01-13 09:25:07
    {"Tempting the Enemy.mp3": 251916770}
创建时间: 2019-05-20 09:46:04 大小:240.25 MB 文件数量:1 热度:3 最近下载:2021-06-17 16:25:58
    {"3424001.jpg": 1389120, "3424002.jpg": 1492808, "3424003.jpg": 1439158, "3424004.jpg": 1416833, "3424005.jpg": 1327236, "3424006.jpg": 1374660, "3424007.jpg": 1403176, "3424008.jpg": 1625394, "3424009.jpg": 1586756, "3424010.jpg": 1442423, "3424011.jpg": ...
创建时间: 2019-05-23 01:39:38 大小:71.98 MB 文件数量:60 热度:6 最近下载:2022-11-15 18:51:03
    ... Swamp.mp3": 13210323, "01 - His Tempting Ritual.mp3": 11007682, "06 - Wrath ...
创建时间: 2019-05-23 12:21:15 大小:99.2 MB 文件数量:9 热度:5 最近下载:2025-02-12 14:42:02
    {"RARBG.txt": 30, "RARBG_DO_NOT_MIRROR.exe": 99, "wetandpissy.19.05.21.kira.axe.tempting.teen.4k.mp4": 3154942398, "wetandpissy.19.05.21.kira.axe.tempting.teen.4k.nfo": 5199}
创建时间: 2019-05-24 01:41:28 大小:2.94 GB 文件数量:4 热度:27 最近下载:2025-08-13 10:22:01
    {"RARBG.txt": 30, "RARBG_DO_NOT_MIRROR.exe": 99, "wetandpissy.19.05.21.kira.axe.tempting.teen.mp4": 1303002559, "wetandpissy.19.05.21.kira.axe.tempting.teen.nfo": 5199}
创建时间: 2019-05-24 01:48:48 大小:1.21 GB 文件数量:4 热度:21 最近下载:2025-10-16 20:09:02
    ... From TorrentGalaxy.org.txt": 689, "Tempting 18Yo Lexi Love Forms 69 ...
创建时间: 2019-05-25 19:09:57 大小:81.09 MB 文件数量:6 热度:7 最近下载:2024-12-22 19:17:02
    {"wetandpissy.19.05.21.kira.axe.tempting.teen[N1C].mp4": 1303002311}
创建时间: 2019-05-25 20:41:27 大小:1.21 GB 文件数量:1 热度:12 最近下载:2025-10-18 03:43:01